Time;durP1;ratioP1;P1;durP2;ratioP2;P2;SDS_P1;SDS_P2;PMS_P1;PMS_P2;Temp;Humidity;BMP_temperature;BMP_pressure;BME280_temperature;BME280_humidity;BME280_pressure;Samples;Min_cycle;Max_cycle;Signal;HPM_P1;HPM_P2
2021/05/14 00:02:05;;;;;;;;;;;;;;;19.39;67.17;100092.13;5011305;28;1580;-59
2021/05/14 00:04:31;;;;;;;;;;;;;;;19.36;67.35;100093.28;5008387;28;1434;-57
2021/05/14 00:06:57;;;;;;;;;;;;;;;19.35;67.58;100102.31;5009011;28;1910;-59
2021/05/14 00:09:24;;;;;;;;;;;;;;;19.33;67.01;100100.78;5014040;28;1506;-57
2021/05/14 00:11:51;;;;;;;;;;;;;;;19.34;67.41;100099.78;5013016;28;1490;-58
2021/05/14 00:14:17;;;;;;;;;;;;;;;19.33;67.21;100111.50;5013848;28;1403;-58
2021/05/14 00:16:43;;;;;;;;;;;;;;;19.35;66.90;100107.69;5014290;28;1745;-58
2021/05/14 00:19:09;;;;;;;;;;;;;;;19.31;66.97;100108.97;5008706;28;1757;-58
2021/05/14 00:21:35;;;;;;;;;;;;;;;19.30;67.13;100099.28;5012214;28;1478;-58
2021/05/14 00:24:01;;;;;;;;;;;;;;;19.34;66.92;100105.13;5006993;28;1492;-58
2021/05/14 00:26:27;;;;;;;;;;;;;;;19.32;66.89;100101.78;5015191;28;1910;-58
2021/05/14 00:28:55;;;;;;;;;;;;;;;19.32;67.04;100108.00;5007008;28;1710;-57
2021/05/14 00:31:21;;;;;;;;;;;;;;;19.31;66.82;100103.63;5006435;28;1710;-58
2021/05/14 00:33:47;;;;;;;;;;;;;;;19.30;66.91;100104.63;5007778;28;1629;-57
2021/05/14 00:36:13;;;;;;;;;;;;;;;19.30;67.15;100104.63;5011702;28;1425;-57
2021/05/14 00:38:39;;;;;;;;;;;;;;;19.29;67.30;100097.56;5013748;28;1637;-57
2021/05/14 00:41:05;;;;;;;;;;;;;;;19.31;67.00;100111.66;5017944;28;1450;-58
2021/05/14 00:43:32;;;;;;;;;;;;;;;19.33;66.89;100114.19;5017173;28;1529;-58
2021/05/14 00:46:01;;;;;;;;;;;;;;;19.31;66.54;100118.88;5016731;28;1906;-58
2021/05/14 00:48:27;;;;;;;;;;;;;;;19.31;66.99;100097.44;5010594;28;1484;-58
2021/05/14 00:50:53;;;;;;;;;;;;;;;19.32;66.89;100107.13;5014334;28;1569;-58
2021/05/14 00:53:19;;;;;;;;;;;;;;;19.30;66.87;100099.28;5017827;28;1153;-58
2021/05/14 00:55:45;;;;;;;;;;;;;;;19.30;67.07;100101.94;5016581;28;1509;-57
2021/05/14 00:58:11;;;;;;;;;;;;;;;19.27;66.83;100099.56;5016851;28;1466;-57
2021/05/14 01:00:37;;;;;;;;;;;;;;;19.30;66.66;100112.69;5014711;28;1614;-58
2021/05/14 01:03:04;;;;;;;;;;;;;;;19.27;66.87;100099.56;5008311;28;1553;-57
2021/05/14 01:05:31;;;;;;;;;;;;;;;19.30;66.93;100106.44;5006031;28;1984;-58
2021/05/14 01:07:57;;;;;;;;;;;;;;;19.30;66.51;100106.44;5016596;28;1493;-57
2021/05/14 01:10:24;;;;;;;;;;;;;;;19.26;66.53;100109.44;5012643;28;1710;-57
2021/05/14 01:12:50;;;;;;;;;;;;;;;19.26;66.62;100103.25;5016465;28;1538;-58
2021/05/14 01:15:16;;;;;;;;;;;;;;;19.26;66.13;100113.97;5013772;28;1618;-57
2021/05/14 01:17:42;;;;;;;;;;;;;;;19.26;65.84;100103.25;5008094;28;1622;-57
2021/05/14 01:20:11;;;;;;;;;;;;;;;19.23;66.32;100099.03;5013823;28;1501;-59
2021/05/14 01:22:38;;;;;;;;;;;;;;;19.23;66.29;100087.47;5010906;28;1631;-57
2021/05/14 01:25:05;;;;;;;;;;;;;;;19.22;66.90;100097.34;5010364;28;1391;-57
2021/05/14 01:27:31;;;;;;;;;;;;;;;19.22;66.91;100075.06;5016317;28;1526;-57
2021/05/14 01:29:57;;;;;;;;;;;;;;;19.22;66.34;100091.16;5012731;28;1528;-57
2021/05/14 01:32:23;;;;;;;;;;;;;;;19.21;66.49;100092.13;5004908;28;1484;-59
2021/05/14 01:34:49;;;;;;;;;;;;;;;19.20;66.65;100091.31;5006337;28;1571;-57
2021/05/14 01:37:15;;;;;;;;;;;;;;;19.21;66.27;100095.66;5010610;28;1340;-57
2021/05/14 01:39:42;;;;;;;;;;;;;;;19.23;66.48;100095.50;5006491;28;1710;-58
2021/05/14 01:42:09;;;;;;;;;;;;;;;19.21;66.36;100098.34;5016307;28;1765;-58
2021/05/14 01:44:35;;;;;;;;;;;;;;;19.21;66.15;100101.00;5010920;28;1575;-57
2021/05/14 01:47:01;;;;;;;;;;;;;;;19.20;66.31;100088.63;5005818;28;1979;-58
2021/05/14 01:49:27;;;;;;;;;;;;;;;19.22;66.33;100092.00;4996777;28;1127;-58
2021/05/14 01:51:53;;;;;;;;;;;;;;;19.21;66.93;100095.66;5014059;28;1462;-57
2021/05/14 01:54:19;;;;;;;;;;;;;;;19.21;66.64;100097.50;5010171;28;1748;-57
2021/05/14 01:56:47;;;;;;;;;;;;;;;19.18;66.03;100108.50;5003677;28;1456;-57
2021/05/14 01:59:13;;;;;;;;;;;;;;;19.17;65.87;100104.16;5015581;28;1217;-58
2021/05/14 02:01:40;;;;;;;;;;;;;;;19.19;66.04;100102.16;5018117;23;2300;-46
2021/05/14 02:04:06;;;;;;;;;;;;;;;19.22;66.03;100118.78;5002862;28;1735;-46
2021/05/14 02:06:32;;;;;;;;;;;;;;;19.22;65.94;100107.25;5003175;28;1906;-46
2021/05/14 02:08:58;;;;;;;;;;;;;;;19.22;65.91;100107.25;5005470;28;2089;-46
2021/05/14 02:11:24;;;;;;;;;;;;;;;19.21;66.24;100101.00;5015939;23;3688;-58
2021/05/14 02:13:51;;;;;;;;;;;;;;;19.16;66.50;100103.31;5003251;28;1730;-57
2021/05/14 02:16:17;;;;;;;;;;;;;;;19.18;65.71;100105.84;5006982;28;1440;-58
2021/05/14 02:18:44;;;;;;;;;;;;;;;19.18;66.05;100114.75;5012362;28;1591;-59
2021/05/14 02:21:10;;;;;;;;;;;;;;;19.19;66.15;100110.22;5007837;28;1504;-58
2021/05/14 02:35:47;;;;;;;;;;;;;;;19.16;65.53;100103.31;4701315;27;10001718;-47
2021/05/14 02:38:13;;;;;;;;;;;;;;;19.15;65.43;100101.63;5060656;28;1975;-47
2021/05/14 02:40:39;;;;;;;;;;;;;;;19.14;65.53;100105.31;5062039;28;1826;-46
2021/05/14 02:43:08;;;;;;;;;;;;;;;19.16;65.53;100116.72;5054207;28;1910;-46
2021/05/14 02:45:34;;;;;;;;;;;;;;;19.12;65.57;100109.13;5059969;28;1707;-46
2021/05/14 02:48:00;;;;;;;;;;;;;;;19.12;65.95;100118.03;5059790;28;1863;-46
2021/05/14 02:50:27;;;;;;;;;;;;;;;19.13;65.41;100122.38;5057185;28;1457;-47
2021/05/14 02:52:53;;;;;;;;;;;;;;;19.16;65.64;100129.25;5062408;28;1899;-47
2021/05/14 02:55:19;;;;;;;;;;;;;;;19.13;65.55;100135.78;5060471;28;1969;-48
2021/05/14 02:57:46;;;;;;;;;;;;;;;19.15;65.49;100143.69;5061884;28;1755;-47
2021/05/14 03:00:15;;;;;;;;;;;;;;;19.14;65.47;100139.28;5055133;28;1559;-48
2021/05/14 03:02:41;;;;;;;;;;;;;;;19.15;65.43;100149.03;5052494;28;2032;-46
2021/05/14 03:05:07;;;;;;;;;;;;;;;19.12;65.51;100146.66;5056937;28;1985;-47
2021/05/14 03:07:33;;;;;;;;;;;;;;;19.12;65.48;100134.13;5048872;28;1869;-48
2021/05/14 03:10:00;;;;;;;;;;;;;;;19.11;64.99;100143.13;5058229;28;1702;-47
2021/05/14 03:12:27;;;;;;;;;;;;;;;19.15;65.41;100154.41;5054733;28;1874;-46
2021/05/14 03:14:53;;;;;;;;;;;;;;;19.13;65.40;100149.19;5053193;28;1744;-46
2021/05/14 03:17:19;;;;;;;;;;;;;;;19.12;65.73;100139.47;5053196;28;1559;-49
2021/05/14 03:19:45;;;;;;;;;;;;;;;19.11;65.10;100147.66;5056629;28;1705;-46
2021/05/14 03:22:11;;;;;;;;;;;;;;;19.13;65.16;100153.72;5055468;28;1588;-46
2021/05/14 03:24:37;;;;;;;;;;;;;;;19.14;65.40;100164.28;5059342;28;2187;-46
2021/05/14 03:27:04;;;;;;;;;;;;;;;19.14;65.33;100158.06;5054870;28;1712;-47
2021/05/14 03:29:30;;;;;;;;;;;;;;;19.13;65.26;100153.72;5050654;28;2230;-47
2021/05/14 03:31:56;;;;;;;;;;;;;;;19.15;65.43;100157.91;5047586;28;1755;-46
2021/05/14 03:34:22;;;;;;;;;;;;;;;19.16;65.39;100166.78;5052771;28;1767;-47
2021/05/14 03:36:48;;;;;;;;;;;;;;;19.15;65.21;100157.91;5040516;28;1705;-46
2021/05/14 03:39:15;;;;;;;;;;;;;;;19.16;65.27;100159.63;5036493;28;1549;-48
2021/05/14 03:41:49;;;;;;;;;;;;;;;19.19;65.01;100166.50;5041802;28;1621;-46
2021/05/14 03:44:16;;;;;;;;;;;;;;;19.20;65.24;100168.16;5040756;28;1906;-46
2021/05/14 03:46:43;;;;;;;;;;;;;;;19.20;65.29;100162.81;5040359;28;1786;-46
2021/05/14 03:49:09;;;;;;;;;;;;;;;19.22;65.17;100166.22;5035697;28;1712;-46
2021/05/14 03:51:39;;;;;;;;;;;;;;;19.26;64.89;100183.69;5038071;28;1712;-46
2021/05/14 03:54:05;;;;;;;;;;;;;;;19.25;64.80;100155.16;5042817;28;1554;-46
2021/05/14 03:56:32;;;;;;;;;;;;;;;19.32;64.79;100175.03;5038347;28;1931;-47
2021/05/14 03:58:58;;;;;;;;;;;;;;;19.34;65.01;100174.84;5043317;28;1738;-46
2021/05/14 04:01:25;;;;;;;;;;;;;;;19.38;64.74;100173.56;5036195;28;1625;-47
2021/05/14 04:03:51;;;;;;;;;;;;;;;19.39;64.13;100177.94;5035876;28;1910;-47
2021/05/14 04:06:17;;;;;;;;;;;;;;;19.51;64.00;100191.97;5034744;28;1728;-46
2021/05/14 04:08:43;;;;;;;;;;;;;;;19.55;64.42;100179.94;5035057;28;1760;-46
2021/05/14 04:16:47;;;;;;;;;;;;;;;19.77;63.03;100182.16;5038424;28;1771;-49
2021/05/14 04:19:13;;;;;;;;;;;;;;;19.88;62.78;100172.22;5042304;28;2097;-49
2021/05/14 04:21:39;;;;;;;;;;;;;;;20.08;61.81;100175.53;5048890;28;1963;-48
2021/05/14 04:24:05;;;;;;;;;;;;;;;20.16;61.28;100189.84;5051796;28;1945;-49
2021/05/14 04:26:31;;;;;;;;;;;;;;;20.29;61.24;100176.00;5048667;28;1957;-51
2021/05/14 04:28:57;;;;;;;;;;;;;;;20.35;60.64;100182.56;5043154;28;1591;-47
2021/05/14 04:31:23;;;;;;;;;;;;;;;20.37;61.07;100178.75;5049094;28;1851;-46
2021/05/14 04:33:50;;;;;;;;;;;;;;;20.41;62.04;100190.88;5049101;28;1660;-46
2021/05/14 04:36:16;;;;;;;;;;;;;;;20.33;61.96;100188.09;5050433;28;1779;-46
2021/05/14 04:38:42;;;;;;;;;;;;;;;20.30;61.76;100192.97;5053326;28;1667;-46
2021/05/14 04:41:08;;;;;;;;;;;;;;;20.25;61.85;100196.97;5040918;28;1704;-46
2021/05/14 04:43:34;;;;;;;;;;;;;;;20.15;63.64;100209.63;5050029;28;1952;-46
2021/05/14 04:46:00;;;;;;;;;;;;;;;20.10;63.51;100200.38;5041921;28;1594;-47
2021/05/14 04:48:26;;;;;;;;;;;;;;;19.98;64.37;100206.00;5045951;28;2089;-46
2021/05/14 04:50:53;;;;;;;;;;;;;;;19.94;63.48;100196.56;5049459;28;1984;-48
2021/05/14 04:53:21;;;;;;;;;;;;;;;19.92;64.20;100216.50;5048391;28;1570;-46
2021/05/14 04:55:47;;;;;;;;;;;;;;;19.86;64.03;100208.06;5045198;28;1719;-46
2021/05/14 04:58:13;;;;;;;;;;;;;;;19.81;64.40;100207.69;5039963;28;1614;-46
2021/05/14 05:00:39;;;;;;;;;;;;;;;19.80;64.15;100218.59;5043149;28;1616;-46
2021/05/14 05:03:06;;;;;;;;;;;;;;;19.77;63.90;100218.88;5042661;28;1641;-50
2021/05/14 05:05:32;;;;;;;;;;;;;;;19.77;64.47;100226.94;5037955;28;1941;-46
2021/05/14 05:07:59;;;;;;;;;;;;;;;19.77;64.13;100229.63;5041737;28;1542;-46
2021/05/14 05:10:25;;;;;;;;;;;;;;;19.75;64.65;100219.03;5038531;28;1950;-46
2021/05/14 05:12:51;;;;;;;;;;;;;;;19.73;63.96;100229.06;5042832;28;1799;-46
2021/05/14 05:15:17;;;;;;;;;;;;;;;19.73;64.22;100212.13;5042732;28;1827;-47
2021/05/14 05:17:43;;;;;;;;;;;;;;;19.70;64.33;100223.16;5041627;28;1561;-46
2021/05/14 05:20:09;;;;;;;;;;;;;;;19.69;64.00;100230.34;5040157;28;1674;-46
2021/05/14 05:22:35;;;;;;;;;;;;;;;19.68;64.30;100244.78;5041439;28;1626;-46
2021/05/14 05:25:03;;;;;;;;;;;;;;;19.68;64.14;100226.00;5043573;28;1916;-46
2021/05/14 05:27:29;;;;;;;;;;;;;;;19.69;64.00;100241.06;5041567;28;1539;-46
2021/05/14 05:29:54;;;;;;;;;;;;;;;19.68;64.37;100232.19;5040185;28;1599;-46
2021/05/14 05:32:20;;;;;;;;;;;;;;;19.68;64.15;100234.03;5040555;28;2000;-46
2021/05/14 05:34:46;;;;;;;;;;;;;;;19.68;64.43;100236.72;5040810;28;1679;-47
2021/05/14 05:37:13;;;;;;;;;;;;;;;19.67;64.45;100240.38;5041874;28;1095;-46
2021/05/14 05:39:38;;;;;;;;;;;;;;;19.67;64.30;100229.66;5048661;28;1718;-49
2021/05/14 05:42:06;;;;;;;;;;;;;;;19.65;64.24;100239.69;5043871;28;1071;-47
2021/05/14 05:44:32;;;;;;;;;;;;;;;19.66;64.36;100228.00;5043981;28;1981;-46
2021/05/14 05:46:58;;;;;;;;;;;;;;;19.66;64.27;100228.00;5040292;28;1622;-46
2021/05/14 05:49:24;;;;;;;;;;;;;;;19.67;63.95;100245.75;5038843;28;1677;-46
2021/05/14 05:51:50;;;;;;;;;;;;;;;19.66;64.42;100241.41;5040881;28;1547;-46
2021/05/14 05:54:16;;;;;;;;;;;;;;;19.67;64.51;100245.75;5042051;28;1514;-47
2021/05/14 05:56:44;;;;;;;;;;;;;;;19.67;63.90;100246.59;5037836;28;1709;-46
2021/05/14 05:59:14;;;;;;;;;;;;;;;19.67;63.89;100256.47;5041531;28;822;-47
2021/05/14 06:01:40;;;;;;;;;;;;;;;19.65;64.64;100247.75;5040737;28;1503;-46
2021/05/14 06:04:06;;;;;;;;;;;;;;;19.69;64.64;100251.81;5043426;28;1969;-46
2021/05/14 06:06:32;;;;;;;;;;;;;;;19.68;63.99;100263.53;5037478;28;2010;-46
2021/05/14 06:08:58;;;;;;;;;;;;;;;19.69;63.85;100265.22;5050034;28;1942;-47
2021/05/14 06:11:24;;;;;;;;;;;;;;;19.79;63.37;100249.91;5041170;28;1283;-46
2021/05/14 06:13:53;;;;;;;;;;;;;;;19.90;64.02;100264.13;5046505;28;1863;-45
2021/05/14 06:16:20;;;;;;;;;;;;;;;19.94;63.08;100257.44;5047985;28;1766;-47
2021/05/14 06:18:55;;;;;;;;;;;;;;;20.00;63.28;100251.47;5041177;28;1801;-47
2021/05/14 06:21:21;;;;;;;;;;;;;;;19.91;61.67;100271.16;5047425;28;1498;-49
2021/05/14 06:23:47;;;;;;;;;;;;;;;19.78;62.74;100263.50;5051157;28;2066;-47
2021/05/14 06:26:15;;;;;;;;;;;;;;;19.85;61.93;100259.19;5044085;28;1959;-47
2021/05/14 06:28:42;;;;;;;;;;;;;;;19.81;60.53;100268.56;5032180;28;1760;-46
2021/05/14 06:31:08;;;;;;;;;;;;;;;19.79;59.93;100267.88;5046123;28;1672;-46
2021/05/14 06:33:35;;;;;;;;;;;;;;;19.74;59.84;100268.34;5041220;28;1793;-46
2021/05/14 06:36:01;;;;;;;;;;;;;;;19.68;60.19;100263.53;5040640;28;1677;-46
2021/05/14 06:38:27;;;;;;;;;;;;;;;19.67;60.60;100276.09;5046403;28;1086;-47
2021/05/14 06:40:53;;;;;;;;;;;;;;;19.65;61.30;100275.41;5043396;28;1949;-47
2021/05/14 06:43:20;;;;;;;;;;;;;;;19.72;60.84;100277.53;5048261;28;1975;-46
2021/05/14 06:45:46;;;;;;;;;;;;;;;19.72;59.42;100270.31;5040246;28;1591;-46
2021/05/14 06:48:14;;;;;;;;;;;;;;;19.66;57.87;100271.75;5040503;28;1564;-46
2021/05/14 06:50:41;;;;;;;;;;;;;;;19.61;58.98;100274.03;5039796;28;1004;-46
2021/05/14 06:53:07;;;;;;;;;;;;;;;19.63;58.68;100277.41;5046188;28;1930;-47
2021/05/14 06:55:34;;;;;;;;;;;;;;;19.66;58.02;100284.31;5042538;28;1830;-46
2021/05/14 06:58:00;;;;;;;;;;;;;;;19.74;58.75;100287.13;5044888;28;1670;-46
2021/05/14 07:00:26;;;;;;;;;;;;;;;19.74;56.48;100281.75;5044313;28;1763;-46
2021/05/14 07:02:52;;;;;;;;;;;;;;;19.62;57.71;100274.88;5043577;28;1695;-46
2021/05/14 07:05:18;;;;;;;;;;;;;;;19.65;58.30;100286.13;5038398;28;1967;-46
2021/05/14 07:07:45;;;;;;;;;;;;;;;19.67;58.60;100288.66;5042809;28;1579;-46
2021/05/14 07:10:12;;;;;;;;;;;;;;;19.64;58.36;100289.00;5046236;28;2135;-46
2021/05/14 07:12:39;;;;;;;;;;;;;;;19.66;58.84;100298.56;5050760;28;2014;-47
2021/05/14 07:15:06;;;;;;;;;;;;;;;19.69;58.01;100297.41;5042195;28;1931;-46
2021/05/14 07:17:32;;;;;;;;;;;;;;;19.66;57.41;100303.09;5048387;28;1415;-46
2021/05/14 07:19:58;;;;;;;;;;;;;;;19.72;58.15;100302.53;5042804;28;1749;-46
2021/05/14 07:22:24;;;;;;;;;;;;;;;19.77;58.04;100310.94;5049380;28;1556;-47
2021/05/14 07:24:51;;;;;;;;;;;;;;;19.71;58.08;100289.22;5050953;28;1910;-46
2021/05/14 07:27:17;;;;;;;;;;;;;;;19.78;57.43;100318.00;5051267;28;1496;-46
2021/05/14 07:29:43;;;;;;;;;;;;;;;19.83;57.45;100304.97;5052939;28;1629;-47
2021/05/14 07:32:10;;;;;;;;;;;;;;;19.77;57.45;100307.41;5049230;28;1511;-46
2021/05/14 07:34:36;;;;;;;;;;;;;;;19.74;58.02;100308.56;5047688;28;1642;-46
2021/05/14 07:37:02;;;;;;;;;;;;;;;19.78;57.89;100318.00;5035082;28;1107;-46
2021/05/14 07:39:28;;;;;;;;;;;;;;;19.84;58.09;100308.50;5036623;28;2002;-46
2021/05/14 07:41:55;;;;;;;;;;;;;;;19.91;58.25;100322.16;5048718;28;1559;-45
2021/05/14 07:44:22;;;;;;;;;;;;;;;19.90;58.25;100309.75;5047925;28;1981;-46
2021/05/14 07:46:48;;;;;;;;;;;;;;;19.93;58.40;100309.44;5044563;28;1594;-46
2021/05/14 07:49:14;;;;;;;;;;;;;;;19.93;58.30;100325.53;5049877;28;1628;-47
2021/05/14 07:51:40;;;;;;;;;;;;;;;19.93;58.59;100315.63;5041871;28;1746;-46
2021/05/14 07:54:06;;;;;;;;;;;;;;;19.98;58.75;100309.81;5044292;28;2003;-46
2021/05/14 07:56:32;;;;;;;;;;;;;;;19.98;58.85;100307.13;5043601;28;1807;-46
2021/05/14 07:58:59;;;;;;;;;;;;;;;20.00;58.97;100318.56;5034806;28;1066;-46
2021/05/14 08:01:25;;;;;;;;;;;;;;;20.03;58.51;100315.56;5049559;28;1880;-46
2021/05/14 08:03:51;;;;;;;;;;;;;;;20.04;59.28;100323.47;5050204;28;1977;-47
2021/05/14 08:06:18;;;;;;;;;;;;;;;20.07;59.01;100335.72;5041750;28;1801;-46
2021/05/14 08:08:44;;;;;;;;;;;;;;;20.11;59.31;100321.00;5051655;28;1607;-47
2021/05/14 08:11:10;;;;;;;;;;;;;;;20.13;59.46;100339.63;5041755;28;1902;-47
2021/05/14 08:13:36;;;;;;;;;;;;;;;20.14;59.20;100330.59;5047105;28;1652;-46
2021/05/14 08:16:03;;;;;;;;;;;;;;;20.19;59.40;100331.84;5039221;28;2117;-46
2021/05/14 08:18:30;;;;;;;;;;;;;;;20.15;60.06;100326.91;5047843;28;1524;-46
2021/05/14 08:20:56;;;;;;;;;;;;;;;20.12;60.18;100338.81;5044023;28;1768;-46
2021/05/14 08:23:22;;;;;;;;;;;;;;;20.12;60.69;100351.41;5049349;28;1421;-46
2021/05/14 08:25:48;;;;;;;;;;;;;;;20.08;59.96;100350.84;5040762;28;2069;-46
2021/05/14 08:28:14;;;;;;;;;;;;;;;20.06;60.29;100347.47;5042667;28;1601;-46
2021/05/14 08:30:41;;;;;;;;;;;;;;;20.07;60.87;100338.41;5040300;28;1927;-46
2021/05/14 08:33:08;;;;;;;;;;;;;;;20.08;60.92;100347.31;5045805;28;1720;-46
2021/05/14 08:35:35;;;;;;;;;;;;;;;20.14;60.61;100355.59;5048446;28;1381;-47
2021/05/14 08:38:01;;;;;;;;;;;;;;;20.11;61.25;100350.53;5050072;28;1727;-46
2021/05/14 08:40:27;;;;;;;;;;;;;;;20.12;61.40;100360.28;5043969;28;1669;-46
2021/05/14 08:42:53;;;;;;;;;;;;;;;20.12;60.11;100349.53;5049933;28;1654;-48
2021/05/14 08:45:19;;;;;;;;;;;;;;;20.12;60.79;100351.41;5044851;28;1971;-46
2021/05/14 08:47:45;;;;;;;;;;;;;;;20.12;61.29;100354.06;5037685;28;1652;-47
2021/05/14 08:50:13;;;;;;;;;;;;;;;20.12;61.51;100362.13;5044453;28;1946;-47
2021/05/14 08:52:40;;;;;;;;;;;;;;;20.03;61.55;100348.63;5042385;28;1697;-47
2021/05/14 08:55:06;;;;;;;;;;;;;;;20.10;61.28;100356.91;5044277;28;1823;-47
2021/05/14 08:57:36;;;;;;;;;;;;;;;20.12;60.67;100348.72;5038997;28;1499;-47
2021/05/14 09:00:03;;;;;;;;;;;;;;;20.11;61.36;100372.00;5041148;28;1752;-46
2021/05/14 09:02:29;;;;;;;;;;;;;;;20.10;60.94;100359.59;5049230;28;1718;-47
2021/05/14 09:04:55;;;;;;;;;;;;;;;20.11;61.12;100355.88;5044838;28;1909;-47
2021/05/14 09:07:24;;;;;;;;;;;;;;;20.12;61.10;100354.91;5049306;28;2003;-45
2021/05/14 09:10:05;;;;;;;;;;;;;;;20.11;61.36;100358.56;5047028;28;1980;-46
2021/05/14 09:12:34;;;;;;;;;;;;;;;20.09;61.65;100347.16;5035719;28;1576;-46
2021/05/14 09:15:19;;;;;;;;;;;;;;;20.12;61.98;100368.34;5041611;28;1572;-46
2021/05/14 09:18:01;;;;;;;;;;;;;;;20.10;62.11;100342.66;5043761;28;1670;-46
2021/05/14 09:20:31;;;;;;;;;;;;;;;20.11;61.29;100350.53;5033574;28;1629;-46
2021/05/14 09:23:03;;;;;;;;;;;;;;;20.13;61.60;100358.44;5052859;28;1378;-46
2021/05/14 09:25:31;;;;;;;;;;;;;;;20.10;59.21;100354.22;5043854;28;2294;-46
2021/05/14 09:28:20;;;;;;;;;;;;;;;20.11;60.60;100355.06;5045665;28;1863;-46
2021/05/14 09:31:03;;;;;;;;;;;;;;;20.11;60.90;100349.69;5057081;28;1994;-46
2021/05/14 09:33:30;;;;;;;;;;;;;;;20.09;59.86;100349.84;5042745;28;1837;-46
2021/05/14 09:35:58;;;;;;;;;;;;;;;20.05;59.08;100360.06;5065270;28;1907;-46
2021/05/14 09:38:41;;;;;;;;;;;;;;;20.08;58.26;100340.13;5056810;28;1719;-47
2021/05/14 09:41:26;;;;;;;;;;;;;;;20.03;58.16;100350.44;5044075;28;1336;-46
2021/05/14 09:44:02;;;;;;;;;;;;;;;20.15;56.61;100351.06;5051535;28;2216;-46
2021/05/14 09:46:32;;;;;;;;;;;;;;;20.09;57.01;100339.09;5059268;28;1849;-46
2021/05/14 09:49:07;;;;;;;;;;;;;;;20.02;57.35;100346.94;5050904;28;1946;-46
2021/05/14 09:51:42;;;;;;;;;;;;;;;20.05;56.95;100337.72;5045220;28;1278;-46
2021/05/14 09:54:29;;;;;;;;;;;;;;;20.01;56.76;100344.38;5049796;28;1745;-46
2021/05/14 09:57:15;;;;;;;;;;;;;;;20.05;56.27;100351.13;5034629;28;1866;-46
2021/05/14 09:59:41;;;;;;;;;;;;;;;20.03;57.26;100328.97;5055184;28;1697;-46
2021/05/14 10:02:17;;;;;;;;;;;;;;;20.13;56.18;100343.16;5066765;28;2019;-46
2021/05/14 10:04:44;;;;;;;;;;;;;;;20.20;55.56;100341.56;5064690;28;1993;-46
2021/05/14 10:07:11;;;;;;;;;;;;;;;20.19;54.60;100347.94;5032276;28;1103;-46
2021/05/14 10:09:42;;;;;;;;;;;;;;;20.17;54.92;100339.16;5034560;28;1790;-47
2021/05/14 10:12:08;;;;;;;;;;;;;;;20.12;55.20;100341.50;5060206;28;1911;-46
2021/05/14 10:14:36;;;;;;;;;;;;;;;20.00;56.22;100340.03;5045955;28;1683;-46
2021/05/14 10:17:03;;;;;;;;;;;;;;;19.95;56.56;100339.63;5037056;28;1697;-46
2021/05/14 10:19:30;;;;;;;;;;;;;;;19.95;56.54;100347.69;5055508;28;1631;-46
2021/05/14 10:21:59;;;;;;;;;;;;;;;19.98;57.22;100347.41;5046459;28;1701;-46
2021/05/14 10:24:47;;;;;;;;;;;;;;;19.90;57.93;100347.31;5033088;28;1985;-46
2021/05/14 10:27:18;;;;;;;;;;;;;;;19.91;57.84;100340.94;5053615;28;2595;-46
2021/05/14 10:29:48;;;;;;;;;;;;;;;19.98;58.14;100345.53;5056071;28;1896;-46
2021/05/14 10:32:16;;;;;;;;;;;;;;;20.02;58.04;100321.94;5049399;28;1921;-46
2021/05/14 10:34:42;;;;;;;;;;;;;;;20.02;56.97;100330.00;5054596;28;1810;-46
2021/05/14 10:37:08;;;;;;;;;;;;;;;20.01;57.28;100353.28;5044765;28;1577;-46
2021/05/14 10:39:39;;;;;;;;;;;;;;;20.07;56.54;100341.09;5048766;28;1859;-46
2021/05/14 10:42:09;;;;;;;;;;;;;;;20.13;57.11;100343.16;5048457;28;1752;-46
2021/05/14 10:44:50;;;;;;;;;;;;;;;20.00;56.86;100348.09;5048418;28;1980;-46
2021/05/14 10:47:47;;;;;;;;;;;;;;;20.04;57.19;100349.47;5044840;28;1983;-46
2021/05/14 10:50:31;;;;;;;;;;;;;;;20.08;57.86;100339.28;5049899;28;1972;-47
2021/05/14 10:53:15;;;;;;;;;;;;;;;19.97;59.09;100332.28;5048760;28;2121;-47
2021/05/14 10:55:41;;;;;;;;;;;;;;;20.05;59.62;100341.28;5049875;28;1929;-47
2021/05/14 10:58:07;;;;;;;;;;;;;;;20.11;59.22;100345.16;5059328;28;1746;-46
2021/05/14 11:00:37;;;;;;;;;;;;;;;20.11;59.07;100334.41;5049434;28;1746;-46
2021/05/14 11:03:16;;;;;;;;;;;;;;;20.13;58.04;100332.44;5047108;28;2150;-46
2021/05/14 11:05:44;;;;;;;;;;;;;;;20.23;57.31;100327.84;5046542;28;1906;-46
2021/05/14 11:08:10;;;;;;;;;;;;;;;20.20;56.46;100336.19;5048166;28;1007;-46
2021/05/14 11:10:37;;;;;;;;;;;;;;;20.16;57.70;100331.28;5046347;28;1623;-45
2021/05/14 11:13:22;;;;;;;;;;;;;;;20.12;56.26;100309.28;5044503;28;1688;-46
2021/05/14 11:15:48;;;;;;;;;;;;;;;20.10;55.38;100324.69;5047663;28;1783;-47
2021/05/14 11:18:25;;;;;;;;;;;;;;;20.06;56.75;100316.09;5044601;28;1736;-47
2021/05/14 11:20:53;;;;;;;;;;;;;;;20.07;55.96;100322.31;5051081;28;1832;-47
2021/05/14 11:23:39;;;;;;;;;;;;;;;20.10;56.49;100305.91;5053140;28;1774;-47
2021/05/14 11:26:05;;;;;;;;;;;;;;;20.17;56.30;100312.31;5046281;28;2680;-47
2021/05/14 11:28:40;;;;;;;;;;;;;;;20.20;55.71;100301.28;5050388;28;1493;-48
2021/05/14 11:31:12;;;;;;;;;;;;;;;20.10;55.74;100313.13;5047504;28;1674;-46
2021/05/14 11:33:42;;;;;;;;;;;;;;;20.12;55.94;100309.28;5046876;28;1598;-48
2021/05/14 11:36:13;;;;;;;;;;;;;;;20.19;54.19;100305.00;5043788;28;1939;-47
2021/05/14 11:38:44;;;;;;;;;;;;;;;20.22;55.23;100304.66;5063146;28;1817;-47
2021/05/14 11:41:14;;;;;;;;;;;;;;;20.13;55.46;100302.91;5042130;28;1568;-47
2021/05/14 11:43:54;;;;;;;;;;;;;;;20.10;55.80;100308.59;5042318;28;1573;-47
2021/05/14 11:46:25;;;;;;;;;;;;;;;20.07;55.37;100306.19;5048252;28;1596;-49
2021/05/14 11:48:52;;;;;;;;;;;;;;;20.01;55.23;100320.22;5053129;28;1665;-49
2021/05/14 11:51:21;;;;;;;;;;;;;;;20.02;55.70;100313.88;5039788;28;1726;-50
2021/05/14 11:53:48;;;;;;;;;;;;;;;20.06;55.89;100307.22;5058682;28;1891;-50
2021/05/14 11:56:14;;;;;;;;;;;;;;;20.09;55.27;100317.63;5041585;28;1296;-49
2021/05/14 11:58:42;;;;;;;;;;;;;;;20.12;56.22;100335.28;5053550;28;1624;-50
2021/05/14 12:01:08;;;;;;;;;;;;;;;20.15;55.46;100302.75;5043638;28;1744;-46
2021/05/14 12:03:34;;;;;;;;;;;;;;;20.10;54.81;100300.53;5044260;28;1872;-47
2021/05/14 12:06:04;;;;;;;;;;;;;;;20.02;55.64;100308.53;5047081;28;1973;-48
2021/05/14 12:08:31;;;;;;;;;;;;;;;20.09;56.24;100319.47;5053697;28;1670;-46
2021/05/14 12:11:00;;;;;;;;;;;;;;;20.14;56.69;100323.38;5050495;28;1595;-46
2021/05/14 12:13:28;;;;;;;;;;;;;;;20.16;55.98;100309.81;5042696;28;2289;-47
2021/05/14 12:15:59;;;;;;;;;;;;;;;20.17;55.24;100322.22;5055353;28;1744;-46
2021/05/14 12:18:25;;;;;;;;;;;;;;;20.09;55.38;100309.56;5047104;28;1727;-46
2021/05/14 12:20:53;;;;;;;;;;;;;;;20.11;55.66;100290.63;5044713;28;1698;-46
2021/05/14 12:23:20;;;;;;;;;;;;;;;20.12;55.48;100303.91;5054691;28;1075;-46
2021/05/14 12:25:48;;;;;;;;;;;;;;;20.12;55.94;100298.53;5043935;28;1943;-46
2021/05/14 12:28:26;;;;;;;;;;;;;;;20.15;55.19;100286.63;5045181;28;1960;-46
2021/05/14 12:30:53;;;;;;;;;;;;;;;20.14;55.68;100307.28;5044954;28;1644;-46
2021/05/14 12:33:19;;;;;;;;;;;;;;;20.12;55.23;100292.34;5041580;28;1627;-46
2021/05/14 12:35:54;;;;;;;;;;;;;;;20.10;55.51;100291.66;5050603;28;1740;-46
2021/05/14 12:38:20;;;;;;;;;;;;;;;20.10;55.25;100289.81;5043314;28;1915;-46
2021/05/14 12:40:47;;;;;;;;;;;;;;;20.13;55.35;100288.63;5048656;28;1520;-46
2021/05/14 12:43:13;;;;;;;;;;;;;;;20.09;55.53;100292.63;5062269;28;1797;-47
2021/05/14 12:45:40;;;;;;;;;;;;;;;20.09;55.57;100290.78;5048819;28;1905;-47
2021/05/14 12:48:09;;;;;;;;;;;;;;;20.08;56.10;100289.09;5053181;28;1771;-46
2021/05/14 12:50:35;;;;;;;;;;;;;;;20.10;55.10;100283.59;5055808;28;1907;-47
2021/05/14 12:53:02;;;;;;;;;;;;;;;20.09;56.16;100288.09;5056590;28;1792;-46
2021/05/14 12:55:29;;;;;;;;;;;;;;;20.10;55.80;100292.47;5067226;28;1721;-46
2021/05/14 12:58:01;;;;;;;;;;;;;;;20.05;54.44;100295.63;5057718;28;1446;-46
2021/05/14 13:00:47;;;;;;;;;;;;;;;20.04;54.74;100290.41;5058548;28;1580;-46
2021/05/14 13:06:11;;;;;;;;;;;;;;;20.03;55.38;100278.84;5055328;28;2213;-46
2021/05/14 13:08:47;;;;;;;;;;;;;;;20.03;54.50;100294.09;5053959;28;1383;-46
2021/05/14 13:11:15;;;;;;;;;;;;;;;20.11;54.46;100286.09;5052694;28;1896;-46